createdAt,value
2023-01-27T00:00:38.715Z,75.88
2023-01-27T00:03:05.841Z,76.92
2023-01-27T00:05:32.456Z,76.92
2023-01-27T00:07:59.178Z,76.78
2023-01-27T00:10:27.355Z,76.70
2023-01-27T00:13:12.609Z,76.85
2023-01-27T00:15:39.936Z,76.86
2023-01-27T00:18:07.091Z,76.89
2023-01-27T00:20:52.210Z,77.14
2023-01-27T00:23:38.176Z,76.92
2023-01-27T00:26:06.894Z,76.85
2023-01-27T00:28:37.616Z,77.39
2023-01-27T00:31:05.092Z,77.31
2023-01-27T00:33:32.138Z,77.56
2023-01-27T00:36:00.495Z,77.37
2023-01-27T00:38:32.523Z,77.62
2023-01-27T00:41:17.486Z,77.57
2023-01-27T00:43:44.040Z,77.81
2023-01-27T00:46:10.671Z,77.12
2023-01-27T00:48:37.392Z,77.08
2023-01-27T00:51:04.236Z,77.07
2023-01-27T00:53:31.462Z,76.71
2023-01-27T00:55:58.621Z,76.38
2023-01-27T00:58:29.102Z,76.33
2023-01-27T01:00:59.393Z,75.99
2023-01-27T01:03:28.486Z,75.90
2023-01-27T01:05:55.052Z,75.64
2023-01-27T01:08:21.618Z,75.81
2023-01-27T01:10:48.201Z,75.63
2023-01-27T01:13:14.805Z,76.26
2023-01-27T01:15:42.355Z,75.99
2023-01-27T01:18:10.742Z,76.14
2023-01-27T01:20:43.238Z,76.35
2023-01-27T01:23:10.785Z,76.07
2023-01-27T01:25:37.636Z,76.27
2023-01-27T01:28:05.686Z,75.82
2023-01-27T01:30:34.937Z,75.69
2023-01-27T01:33:01.928Z,75.96
2023-01-27T01:35:28.522Z,76.17
2023-01-27T01:37:55.204Z,75.84
2023-01-27T01:40:25.514Z,75.76
2023-01-27T01:43:00.163Z,76.28
2023-01-27T01:45:33.647Z,76.45
2023-01-27T01:48:22.073Z,75.86
2023-01-27T01:50:54.266Z,76.40
2023-01-27T01:53:27.292Z,76.29
2023-01-27T01:55:54.012Z,76.43
2023-01-27T01:58:21.095Z,76.42
2023-01-27T02:00:47.903Z,76.45
2023-01-27T02:03:15.134Z,76.56
2023-01-27T02:05:45.140Z,77.26
2023-01-27T02:08:24.627Z,77.24
2023-01-27T02:10:54.403Z,77.19
2023-01-27T02:13:21.763Z,76.77
2023-01-27T02:15:50.530Z,76.03
2023-01-27T02:18:18.163Z,76.21
2023-01-27T02:20:53.748Z,75.55
2023-01-27T02:23:32.180Z,74.77
2023-01-27T02:26:17.796Z,74.19
2023-01-27T02:28:44.702Z,74.34
2023-01-27T02:31:11.466Z,74.45
2023-01-27T02:33:38.140Z,74.42
2023-01-27T02:36:16.671Z,74.18
2023-01-27T02:38:50.539Z,74.31
2023-01-27T02:41:22.764Z,73.88
2023-01-27T02:43:49.819Z,73.93
2023-01-27T02:46:16.523Z,73.30
2023-01-27T02:48:43.205Z,73.32
2023-01-27T02:51:10.653Z,73.29
2023-01-27T02:53:37.241Z,73.25
2023-01-27T02:56:04.009Z,73.04
2023-01-27T02:58:30.654Z,72.72
2023-01-27T03:00:57.230Z,72.89
2023-01-27T03:03:23.913Z,72.75
2023-01-27T03:05:51.525Z,72.86
2023-01-27T03:08:19.191Z,73.47
2023-01-27T03:10:50.780Z,73.50
2023-01-27T03:13:21.387Z,74.01
2023-01-27T03:16:06.684Z,74.12
2023-01-27T03:18:33.380Z,74.03
2023-01-27T03:21:06.026Z,74.10
2023-01-27T03:23:36.475Z,74.39
2023-01-27T03:26:06.912Z,74.08
2023-01-27T03:28:33.733Z,74.48
2023-01-27T03:31:08.522Z,74.58
2023-01-27T03:33:35.371Z,74.66
2023-01-27T03:36:23.516Z,74.92
2023-01-27T03:39:08.409Z,74.70
2023-01-27T03:41:53.843Z,74.90
2023-01-27T03:44:38.611Z,75.38
2023-01-27T03:47:05.169Z,74.85
2023-01-27T03:49:31.756Z,75.09
2023-01-27T03:51:58.968Z,75.30
2023-01-27T03:54:25.506Z,75.22
2023-01-27T03:56:52.057Z,75.04
2023-01-27T03:59:18.663Z,74.68
2023-01-27T04:01:45.313Z,75.05
2023-01-27T04:04:30.429Z,74.71
2023-01-27T04:07:02.838Z,74.54
2023-01-27T04:09:35.836Z,74.96
2023-01-27T04:12:06.877Z,74.50
2023-01-27T04:14:43.062Z,74.28
2023-01-27T04:17:15.169Z,73.72
2023-01-27T04:19:42.052Z,74.06
2023-01-27T04:22:11.060Z,74.16
2023-01-27T04:24:37.721Z,73.97
2023-01-27T04:27:12.759Z,73.91
2023-01-27T04:29:41.590Z,73.58
2023-01-27T04:32:10.267Z,73.37
2023-01-27T04:34:37.475Z,73.58
2023-01-27T04:37:05.668Z,73.53
2023-01-27T04:39:32.815Z,73.44
2023-01-27T04:41:59.516Z,73.40
2023-01-27T04:44:26.609Z,73.60
2023-01-27T04:46:54.755Z,73.56
2023-01-27T04:49:21.357Z,73.71
2023-01-27T04:51:47.933Z,73.97
2023-01-27T04:54:14.652Z,73.76
2023-01-27T04:56:53.549Z,73.63
2023-01-27T04:59:20.125Z,73.86
2023-01-27T05:01:46.727Z,74.08
2023-01-27T05:04:13.261Z,74.33
2023-01-27T05:06:39.832Z,74.20
2023-01-27T05:09:06.432Z,74.37
2023-01-27T05:11:32.966Z,74.54
2023-01-27T05:13:59.505Z,74.57
2023-01-27T05:16:27.574Z,74.43
2023-01-27T05:18:54.666Z,74.28
2023-01-27T05:21:23.864Z,74.30
2023-01-27T05:23:50.778Z,75.46
2023-01-27T05:26:20.377Z,74.90
2023-01-27T05:28:48.907Z,75.16
2023-01-27T05:31:21.693Z,75.79
2023-01-27T05:33:50.874Z,75.64
2023-01-27T05:36:19.605Z,75.48
2023-01-27T05:38:46.791Z,75.71
2023-01-27T05:41:15.119Z,76.64
2023-01-27T05:43:43.670Z,76.50
2023-01-27T05:46:16.473Z,76.68
2023-01-27T05:48:54.497Z,76.96
2023-01-27T05:51:23.471Z,77.15
2023-01-27T05:53:50.609Z,77.67
2023-01-27T05:56:19.623Z,77.56
2023-01-27T05:58:46.206Z,77.85
2023-01-27T06:01:13.829Z,77.52
2023-01-27T06:03:41.286Z,77.96
2023-01-27T06:06:09.594Z,77.62
2023-01-27T06:08:37.271Z,78.18
2023-01-27T06:11:04.543Z,77.50
2023-01-27T06:13:31.502Z,77.67
2023-01-27T06:15:58.171Z,78.10
2023-01-27T06:18:24.852Z,79.21
2023-01-27T06:20:51.434Z,79.30
2023-01-27T06:23:18.406Z,79.27
2023-01-27T06:25:48.048Z,79.17
2023-01-27T06:28:28.160Z,78.54
2023-01-27T06:30:56.398Z,79.20
2023-01-27T06:33:23.384Z,78.66
2023-01-27T06:35:50.132Z,78.76
2023-01-27T06:38:16.790Z,78.78
2023-01-27T06:40:44.312Z,78.13
2023-01-27T06:43:14.435Z,77.62
2023-01-27T06:45:41.172Z,76.76
2023-01-27T06:48:11.237Z,77.07
2023-01-27T06:50:37.807Z,76.85
2023-01-27T06:53:07.225Z,76.26
2023-01-27T06:55:35.571Z,76.22
2023-01-27T06:58:03.007Z,76.77
2023-01-27T07:00:30.143Z,76.48
2023-01-27T07:02:57.344Z,73.82
2023-01-27T07:05:24.687Z,75.01
2023-01-27T07:07:51.687Z,74.70
2023-01-27T07:10:18.375Z,73.55
2023-01-27T07:12:45.187Z,72.89
2023-01-27T07:15:12.389Z,72.15
2023-01-27T07:17:39.096Z,71.68
2023-01-27T07:20:08.133Z,70.90
2023-01-27T07:22:34.729Z,71.26
2023-01-27T07:25:02.159Z,71.09
2023-01-27T07:27:29.500Z,70.71
2023-01-27T07:29:56.207Z,71.29
2023-01-27T07:32:22.792Z,70.01
2023-01-27T07:34:49.392Z,69.10
2023-01-27T07:37:15.984Z,69.16
2023-01-27T07:39:42.550Z,68.76
2023-01-27T07:42:09.915Z,67.42
2023-01-27T07:44:36.518Z,66.13
2023-01-27T07:47:03.176Z,64.42
2023-01-27T07:49:29.751Z,64.63
2023-01-27T07:51:56.291Z,65.15
2023-01-27T07:54:23.088Z,65.20
2023-01-27T07:56:49.647Z,65.48
2023-01-27T07:59:16.298Z,64.36
2023-01-27T08:01:43.320Z,64.79
2023-01-27T08:04:10.036Z,64.68
2023-01-27T08:06:39.747Z,63.06
2023-01-27T08:09:06.951Z,63.57
2023-01-27T08:11:34.249Z,63.72
2023-01-27T08:14:01.237Z,62.57
2023-01-27T08:16:27.948Z,62.48
2023-01-27T08:18:55.146Z,62.08
2023-01-27T08:21:21.789Z,61.89
2023-01-27T08:23:48.423Z,61.56
2023-01-27T08:26:15.136Z,62.13
2023-01-27T08:28:42.793Z,61.46
2023-01-27T08:31:14.975Z,61.04
2023-01-27T08:33:43.038Z,62.94
2023-01-27T08:36:15.591Z,62.20
2023-01-27T08:38:43.707Z,61.49
2023-01-27T08:41:15.943Z,62.62
2023-01-27T08:43:43.554Z,62.40
2023-01-27T08:46:10.761Z,62.46
2023-01-27T08:48:38.403Z,61.92
2023-01-27T08:51:06.449Z,60.26
2023-01-27T08:53:33.621Z,61.63
2023-01-27T08:56:05.751Z,60.91
2023-01-27T08:58:33.429Z,61.45
2023-01-27T09:01:05.614Z,61.39
2023-01-27T09:03:33.447Z,60.00
2023-01-27T09:06:00.520Z,59.73
2023-01-27T09:08:27.774Z,59.58
2023-01-27T09:10:54.633Z,60.64
2023-01-27T09:13:24.077Z,60.14
2023-01-27T09:15:54.475Z,60.26
2023-01-27T09:18:21.644Z,60.29
2023-01-27T09:20:48.279Z,61.22
2023-01-27T09:23:14.915Z,61.54
2023-01-27T09:25:41.461Z,61.56
2023-01-27T09:28:16.802Z,62.02
2023-01-27T09:30:46.832Z,63.23
2023-01-27T09:33:17.670Z,63.17
2023-01-27T09:35:52.576Z,63.79
2023-01-27T09:38:22.164Z,64.59
2023-01-27T09:41:34.467Z,64.57
2023-01-27T09:44:28.181Z,63.94
2023-01-27T09:47:32.369Z,64.46
2023-01-27T09:50:23.890Z,64.28
2023-01-27T09:53:27.955Z,63.03
2023-01-27T09:56:03.341Z,63.34
2023-01-27T09:58:56.984Z,63.39
2023-01-27T10:01:45.123Z,63.49
2023-01-27T10:04:23.451Z,63.45
2023-01-27T10:07:05.193Z,63.25
2023-01-27T10:10:09.181Z,63.43
2023-01-27T10:13:10.883Z,63.86
2023-01-27T10:16:03.248Z,64.35
2023-01-27T10:18:32.840Z,64.11
2023-01-27T10:21:41.363Z,64.54
2023-01-27T10:24:47.023Z,64.77
2023-01-27T10:27:21.415Z,65.46
2023-01-27T10:30:00.470Z,63.75
2023-01-27T10:32:33.625Z,63.56
2023-01-27T10:35:11.962Z,64.58
2023-01-27T10:37:41.191Z,65.02
2023-01-27T10:40:16.699Z,64.72
2023-01-27T10:43:13.801Z,64.55
2023-01-27T10:46:04.698Z,64.53
2023-01-27T10:48:48.358Z,65.28
2023-01-27T10:51:23.309Z,65.11
2023-01-27T10:54:03.228Z,64.93
2023-01-27T10:56:29.732Z,65.49
2023-01-27T10:58:56.243Z,65.63
2023-01-27T11:01:30.952Z,65.88
2023-01-27T11:04:10.590Z,66.60
2023-01-27T11:06:41.331Z,67.21
2023-01-27T11:09:13.795Z,67.92
2023-01-27T11:11:46.327Z,66.66
2023-01-27T11:14:46.785Z,67.84
2023-01-27T11:17:30.133Z,67.99
2023-01-27T11:19:59.862Z,69.49
2023-01-27T11:22:37.904Z,69.39
2023-01-27T11:25:29.028Z,69.59
2023-01-27T11:28:19.990Z,70.31
2023-01-27T11:31:24.019Z,69.82
2023-01-27T11:34:21.338Z,70.66
2023-01-27T11:36:49.973Z,70.69
2023-01-27T11:39:18.223Z,71.34
2023-01-27T11:41:58.709Z,71.96
2023-01-27T11:44:32.256Z,71.61
2023-01-27T11:46:59.174Z,71.80
2023-01-27T11:49:36.557Z,71.70
2023-01-27T11:52:15.148Z,71.78
2023-01-27T11:54:47.124Z,70.23
2023-01-27T11:57:22.494Z,71.13
2023-01-27T12:00:24.250Z,70.75
2023-01-27T12:03:01.539Z,71.37
2023-01-27T12:05:33.650Z,71.51
2023-01-27T12:08:02.741Z,71.14
2023-01-27T12:10:44.376Z,71.59
2023-01-27T12:13:21.561Z,71.81
2023-01-27T12:15:55.505Z,71.76
2023-01-27T12:18:25.649Z,72.49
2023-01-27T12:21:01.406Z,71.97
2023-01-27T12:23:33.623Z,72.12
2023-01-27T12:26:03.155Z,71.97
2023-01-27T12:28:36.675Z,71.85
2023-01-27T12:31:13.599Z,72.97
2023-01-27T12:33:46.827Z,71.44
2023-01-27T12:36:17.019Z,71.43
2023-01-27T12:38:55.797Z,70.25
2023-01-27T12:41:28.284Z,70.26
2023-01-27T12:44:00.380Z,69.69
2023-01-27T12:46:29.568Z,69.25
2023-01-27T12:49:05.160Z,69.48
2023-01-27T12:51:48.344Z,69.46
2023-01-27T12:54:35.564Z,69.41
2023-01-27T12:57:05.531Z,68.71
2023-01-27T12:59:33.232Z,68.03
2023-01-27T13:02:18.513Z,68.78
2023-01-27T13:04:52.964Z,69.92
2023-01-27T13:07:26.403Z,69.33
2023-01-27T13:09:55.521Z,69.50
2023-01-27T13:12:23.721Z,69.90
2023-01-27T13:14:53.450Z,69.08
2023-01-27T13:17:35.469Z,69.69
2023-01-27T13:20:08.494Z,70.66
2023-01-27T13:22:42.381Z,71.43
2023-01-27T13:25:18.133Z,71.77
2023-01-27T13:27:46.330Z,71.36
2023-01-27T13:30:31.863Z,72.52
2023-01-27T13:33:11.775Z,72.57
2023-01-27T13:35:56.059Z,72.30
2023-01-27T13:38:31.452Z,74.26
2023-01-27T13:40:58.523Z,74.21
2023-01-27T13:43:36.133Z,74.32
2023-01-27T13:46:07.540Z,74.83
2023-01-27T13:48:42.343Z,74.54
2023-01-27T13:51:14.193Z,75.18
2023-01-27T13:53:41.618Z,75.06
2023-01-27T13:56:17.412Z,75.06
2023-01-27T13:58:54.819Z,75.91
2023-01-27T14:01:43.302Z,76.90
2023-01-27T14:04:09.915Z,76.56
2023-01-27T14:06:36.410Z,76.93
2023-01-27T14:09:11.791Z,76.21
2023-01-27T14:11:48.820Z,75.84
2023-01-27T14:14:33.438Z,76.08
2023-01-27T14:17:28.791Z,76.29
2023-01-27T14:20:05.381Z,77.15
2023-01-27T14:22:50.567Z,78.28
2023-01-27T14:25:52.535Z,76.95
2023-01-27T14:29:04.158Z,78.65
2023-01-27T14:31:59.296Z,78.14
2023-01-27T14:34:52.076Z,78.81
2023-01-27T14:37:25.085Z,78.58
2023-01-27T14:40:29.424Z,79.28
2023-01-27T14:43:16.266Z,79.21
2023-01-27T14:46:08.807Z,79.79
2023-01-27T14:48:57.910Z,80.36
2023-01-27T14:51:41.788Z,79.98
2023-01-27T14:54:11.306Z,80.30
2023-01-27T14:57:12.212Z,80.97
2023-01-27T14:59:41.605Z,81.02
2023-01-27T15:02:17.858Z,81.14
2023-01-27T15:05:13.430Z,81.68
2023-01-27T15:07:54.357Z,81.89
2023-01-27T15:10:26.744Z,82.19
2023-01-27T15:13:20.463Z,81.85
2023-01-27T15:16:08.417Z,81.45
2023-01-27T15:19:02.321Z,81.53
2023-01-27T15:21:44.100Z,81.04
2023-01-27T15:24:38.175Z,81.07
2023-01-27T15:27:06.843Z,81.89
2023-01-27T15:29:33.618Z,81.34
2023-01-27T15:32:15.263Z,81.26
2023-01-27T15:34:44.511Z,81.83
2023-01-27T15:37:21.802Z,81.78
2023-01-27T15:40:06.645Z,81.13
2023-01-27T15:43:11.617Z,81.52
2023-01-27T15:45:43.611Z,81.92
2023-01-27T15:48:10.176Z,81.86
2023-01-27T15:50:39.745Z,81.73
2023-01-27T15:53:15.872Z,81.44
2023-01-27T15:55:55.008Z,80.90
2023-01-27T15:58:28.709Z,80.43
2023-01-27T16:00:57.799Z,80.73
2023-01-27T16:03:32.491Z,80.11
2023-01-27T16:06:02.125Z,79.75
2023-01-27T16:08:37.307Z,80.34
2023-01-27T16:11:22.389Z,79.81
2023-01-27T16:13:48.887Z,80.17
2023-01-27T16:16:18.348Z,80.04
2023-01-27T16:18:57.461Z,80.35
2023-01-27T16:21:52.138Z,79.84
2023-01-27T16:24:43.381Z,80.23
2023-01-27T16:27:32.439Z,79.78
2023-01-27T16:30:20.800Z,79.66
2023-01-27T16:33:21.933Z,80.11
2023-01-27T16:35:59.855Z,79.40
2023-01-27T16:38:38.079Z,79.84
2023-01-27T16:41:16.684Z,79.87
2023-01-27T16:43:49.806Z,79.97
2023-01-27T16:46:46.999Z,79.47
2023-01-27T16:49:25.729Z,79.64
2023-01-27T16:51:56.818Z,79.47
2023-01-27T16:54:39.928Z,79.17
2023-01-27T16:57:08.455Z,79.45
2023-01-27T16:59:38.552Z,79.59
2023-01-27T17:02:19.985Z,79.41
2023-01-27T17:04:53.030Z,79.82
2023-01-27T17:07:19.816Z,79.13
2023-01-27T17:09:52.145Z,79.32
2023-01-27T17:12:36.269Z,79.27
2023-01-27T17:15:18.124Z,79.81
2023-01-27T17:17:45.108Z,79.44
2023-01-27T17:20:26.112Z,79.07
2023-01-27T17:22:54.569Z,79.84
2023-01-27T17:25:32.191Z,79.64
2023-01-27T17:28:01.597Z,79.26
2023-01-27T17:30:35.292Z,79.25
2023-01-27T17:33:05.145Z,79.46
2023-01-27T17:35:35.715Z,79.67
2023-01-27T17:38:05.102Z,79.73
2023-01-27T17:40:39.223Z,80.00
2023-01-27T17:43:28.595Z,79.59
2023-01-27T17:46:21.674Z,79.74
2023-01-27T17:48:53.314Z,79.90
2023-01-27T17:51:23.934Z,80.06
2023-01-27T17:53:52.440Z,79.53
2023-01-27T17:56:27.409Z,80.04
2023-01-27T17:58:58.748Z,79.45
2023-01-27T18:01:25.393Z,79.11
2023-01-27T18:03:56.873Z,79.91
2023-01-27T18:06:27.536Z,80.38
2023-01-27T18:08:57.359Z,80.61
2023-01-27T18:11:31.113Z,80.00
2023-01-27T18:14:08.224Z,80.06
2023-01-27T18:16:35.344Z,79.53
2023-01-27T18:19:08.187Z,80.21
2023-01-27T18:21:36.657Z,79.83
2023-01-27T18:24:20.147Z,80.20
2023-01-27T18:26:47.726Z,79.50
2023-01-27T18:29:29.769Z,79.51
2023-01-27T18:32:15.606Z,79.69
2023-01-27T18:34:48.147Z,79.33
2023-01-27T18:37:33.201Z,79.66
2023-01-27T18:40:03.529Z,79.01
2023-01-27T18:42:31.664Z,79.45
2023-01-27T18:44:58.421Z,79.38
2023-01-27T18:47:35.690Z,79.27
2023-01-27T18:50:12.143Z,79.46
2023-01-27T18:52:39.260Z,79.47
2023-01-27T18:55:16.972Z,78.59
2023-01-27T18:57:44.479Z,79.17
2023-01-27T19:00:14.808Z,79.25
2023-01-27T19:02:46.440Z,78.87
2023-01-27T19:05:21.786Z,79.20
2023-01-27T19:07:48.711Z,78.58
2023-01-27T19:10:18.918Z,78.47
2023-01-27T19:12:45.955Z,78.57
2023-01-27T19:15:14.934Z,78.79
2023-01-27T19:17:43.670Z,78.68
2023-01-27T19:20:19.320Z,79.15
2023-01-27T19:22:47.129Z,79.17
2023-01-27T19:25:14.229Z,78.96
2023-01-27T19:27:46.552Z,78.60
2023-01-27T19:30:37.425Z,79.07
2023-01-27T19:33:15.481Z,78.22
2023-01-27T19:35:44.145Z,78.38
2023-01-27T19:38:12.300Z,78.58
2023-01-27T19:40:39.298Z,77.73
2023-01-27T19:43:05.917Z,77.82
2023-01-27T19:45:32.777Z,78.48
2023-01-27T19:47:59.977Z,77.85
2023-01-27T19:50:30.471Z,78.09
2023-01-27T19:52:58.189Z,78.26
2023-01-27T19:55:25.762Z,78.24
2023-01-27T19:57:52.965Z,77.89
2023-01-27T20:00:22.354Z,78.00
2023-01-27T20:02:49.129Z,78.33
2023-01-27T20:05:16.334Z,78.34
2023-01-27T20:07:44.466Z,78.06
2023-01-27T20:10:20.738Z,77.89
2023-01-27T20:13:15.485Z,78.11
2023-01-27T20:15:42.375Z,78.00
2023-01-27T20:18:18.965Z,77.75
2023-01-27T20:20:46.680Z,77.66
2023-01-27T20:23:16.428Z,77.11
2023-01-27T20:25:43.269Z,77.54
2023-01-27T20:28:10.700Z,76.84
2023-01-27T20:30:38.806Z,77.00
2023-01-27T20:33:05.896Z,76.60
2023-01-27T20:35:32.505Z,76.76
2023-01-27T20:37:59.112Z,77.03
2023-01-27T20:40:27.986Z,76.65
2023-01-27T20:42:55.194Z,76.77
2023-01-27T20:45:22.321Z,76.46
2023-01-27T20:47:50.534Z,76.78
2023-01-27T20:50:17.908Z,77.03
2023-01-27T20:52:44.904Z,76.95
2023-01-27T20:55:13.784Z,76.88
2023-01-27T20:57:40.979Z,76.57
2023-01-27T21:00:08.849Z,76.82
2023-01-27T21:02:35.420Z,76.91
2023-01-27T21:05:02.023Z,77.21
2023-01-27T21:07:28.615Z,76.18
2023-01-27T21:09:55.189Z,76.53
2023-01-27T21:12:21.913Z,76.11
2023-01-27T21:14:48.699Z,76.71
2023-01-27T21:17:15.498Z,76.56
2023-01-27T21:19:42.092Z,76.32
2023-01-27T21:22:08.729Z,75.93
2023-01-27T21:24:35.653Z,76.26
2023-01-27T21:27:04.475Z,76.26
2023-01-27T21:29:31.179Z,76.00
2023-01-27T21:31:57.799Z,76.58
2023-01-27T21:34:24.471Z,76.30
2023-01-27T21:36:51.055Z,76.20
2023-01-27T21:39:17.587Z,76.24
2023-01-27T21:41:52.851Z,76.56
2023-01-27T21:44:46.943Z,76.12
2023-01-27T21:47:18.901Z,76.00
2023-01-27T21:50:02.041Z,75.86
2023-01-27T21:52:39.528Z,75.64
2023-01-27T21:55:09.697Z,75.52
2023-01-27T21:57:36.527Z,75.95
2023-01-27T22:00:06.250Z,75.49
2023-01-27T22:02:32.997Z,75.51
2023-01-27T22:04:59.656Z,76.04
2023-01-27T22:07:27.096Z,75.86
2023-01-27T22:09:53.666Z,75.20
2023-01-27T22:12:21.875Z,75.49
2023-01-27T22:14:48.418Z,75.14
2023-01-27T22:17:15.492Z,75.33
2023-01-27T22:19:42.055Z,74.98
2023-01-27T22:22:11.952Z,74.76
2023-01-27T22:24:38.656Z,75.46
2023-01-27T22:27:05.289Z,75.38
2023-01-27T22:29:31.933Z,75.39
2023-01-27T22:31:58.533Z,74.87
2023-01-27T22:34:25.280Z,74.83
2023-01-27T22:36:52.155Z,74.99
2023-01-27T22:39:19.263Z,74.19
2023-01-27T22:41:47.366Z,74.41
2023-01-27T22:44:14.249Z,74.22
2023-01-27T22:46:42.639Z,73.99
2023-01-27T22:49:11.200Z,74.28
2023-01-27T22:51:37.948Z,73.78
2023-01-27T22:54:05.283Z,74.67
2023-01-27T22:56:32.162Z,73.79
2023-01-27T22:59:01.230Z,73.96
2023-01-27T23:01:28.178Z,73.92
2023-01-27T23:03:54.835Z,74.09
2023-01-27T23:06:21.458Z,74.05
2023-01-27T23:08:48.129Z,73.43
2023-01-27T23:11:14.771Z,73.55
2023-01-27T23:13:41.427Z,73.50
2023-01-27T23:16:09.582Z,73.05
2023-01-27T23:18:36.694Z,73.37
2023-01-27T23:21:06.335Z,72.52
2023-01-27T23:23:34.063Z,72.98
2023-01-27T23:26:00.640Z,73.20
2023-01-27T23:28:27.320Z,73.00
2023-01-27T23:30:54.061Z,73.02
2023-01-27T23:33:21.076Z,73.49
2023-01-27T23:35:48.375Z,73.43
2023-01-27T23:38:31.307Z,72.91
2023-01-27T23:41:03.055Z,72.95
2023-01-27T23:43:32.820Z,73.68
2023-01-27T23:46:00.274Z,73.77
2023-01-27T23:48:27.544Z,72.95
2023-01-27T23:50:55.001Z,72.95
2023-01-27T23:53:22.073Z,74.46
2023-01-27T23:55:58.602Z,76.18
2023-01-27T23:58:26.349Z,76.93
